RUK9ZY EGAA-EGSS
Flight info
| Callsign | RUK9ZY |
|---|---|
| Flight time | N/A |
| Altitude | 33000 |
| Route | LISBO DCT RINGA DCT BABGU DCT ETIGA DCT INKOB Q39 NOMSU UQ4 LISTO |
| Aircraft | B738/M-SDE1E2E3FGIJ1LRWY/SB1 |
Departure
| Time | 2026-05-07 17:01 |
|---|---|
| Airport | Belfast International Airport (EGAA) |
Arrival
| Time | N/A |
|---|---|
| Airport | London Stansted Airport (EGSS) |
| Time | Latitude | Longitude | Altitude | Speed | Heading |
|---|---|---|---|---|---|
| 2026-05-07 16:14 | 54.66146 | -6.21376 | 271 ft | 0 kts | 245° |
| 2026-05-07 16:52 | 54.66153 | -6.21351 | 271 ft | 4 kts | 245° |
| 2026-05-07 16:53 | 54.66163 | -6.21318 | 271 ft | 4 kts | 224° |
| 2026-05-07 16:53 | 54.66182 | -6.21308 | 271 ft | 4 kts | 158° |
| 2026-05-07 16:53 | 54.66195 | -6.21317 | 271 ft | 5 kts | 155° |
| 2026-05-07 16:53 | 54.66171 | -6.21298 | 271 ft | 4 kts | 155° |
| 2026-05-07 16:54 | 54.66147 | -6.21279 | 271 ft | 4 kts | 155° |
| 2026-05-07 16:54 | 54.66128 | -6.21263 | 271 ft | 0 kts | 155° |
| 2026-05-07 16:57 | 54.66107 | -6.21246 | 271 ft | 6 kts | 154° |
| 2026-05-07 16:57 | 54.66068 | -6.21213 | 271 ft | 6 kts | 153° |
| 2026-05-07 16:58 | 54.66049 | -6.21152 | 271 ft | 7 kts | 77° |
| 2026-05-07 16:58 | 54.66067 | -6.21080 | 271 ft | 6 kts | 65° |
| 2026-05-07 16:58 | 54.66086 | -6.21009 | 271 ft | 7 kts | 65° |
| 2026-05-07 16:58 | 54.66118 | -6.20894 | 274 ft | 14 kts | 66° |
| 2026-05-07 16:59 | 54.66170 | -6.20705 | 271 ft | 20 kts | 65° |
| 2026-05-07 16:59 | 54.66234 | -6.20465 | 271 ft | 24 kts | 65° |
| 2026-05-07 16:59 | 54.66309 | -6.20190 | 273 ft | 26 kts | 64° |
| 2026-05-07 16:59 | 54.66382 | -6.19923 | 272 ft | 22 kts | 66° |
| 2026-05-07 17:00 | 54.66363 | -6.19713 | 274 ft | 12 kts | 142° |
| 2026-05-07 17:00 | 54.66297 | -6.19658 | 271 ft | 10 kts | 161° |
| 2026-05-07 17:00 | 54.66253 | -6.19711 | 271 ft | 10 kts | 245° |
| 2026-05-07 17:00 | 54.66198 | -6.19912 | 271 ft | 45 kts | 245° |
| 2026-05-07 17:01 | 54.65944 | -6.20850 | 271 ft | 124 kts | 245° |
| 2026-05-07 17:01 | 54.65516 | -6.22504 | 585 ft | 163 kts | 245° |
| 2026-05-07 17:01 | 54.65110 | -6.24347 | 1595 ft | 164 kts | 245° |
| 2026-05-07 17:01 | 54.64731 | -6.26165 | 2688 ft | 157 kts | 242° |
| 2026-05-07 17:02 | 54.64018 | -6.27457 | 3652 ft | 153 kts | 203° |
| 2026-05-07 17:02 | 54.62954 | -6.27455 | 4586 ft | 164 kts | 161° |
| 2026-05-07 17:02 | 54.62052 | -6.26158 | 5463 ft | 173 kts | 136° |
| 2026-05-07 17:02 | 54.61232 | -6.24476 | 6064 ft | 199 kts | 135° |
| 2026-05-07 17:03 | 54.60293 | -6.22508 | 6502 ft | 220 kts | 135° |
| 2026-05-07 17:03 | 54.59303 | -6.20429 | 7220 ft | 226 kts | 134° |
| 2026-05-07 17:03 | 54.58225 | -6.18404 | 7773 ft | 238 kts | 146° |
| 2026-05-07 17:03 | 54.56822 | -6.16572 | 8101 ft | 269 kts | 142° |
| 2026-05-07 17:04 | 54.55456 | -6.14266 | 8902 ft | 279 kts | 138° |